sensor_id;sensor_type;location;lat;lon;timestamp;P1;durP1;ratioP1;P2;durP2;ratioP2
16403;SDS011;8311;50.158;8.642;2022-07-12T00:02:19;1.83;;;1.30;;
16403;SDS011;8311;50.158;8.642;2022-07-12T00:05:12;2.13;;;1.40;;
16403;SDS011;8311;50.158;8.642;2022-07-12T00:08:05;2.28;;;1.42;;
16403;SDS011;8311;50.158;8.642;2022-07-12T00:10:59;1.88;;;1.30;;
16403;SDS011;8311;50.158;8.642;2022-07-12T00:13:52;2.17;;;1.42;;
16403;SDS011;8311;50.158;8.642;2022-07-12T00:16:45;3.47;;;1.58;;
16403;SDS011;8311;50.158;8.642;2022-07-12T00:19:39;2.83;;;1.63;;
16403;SDS011;8311;50.158;8.642;2022-07-12T00:22:32;2.30;;;1.48;;
16403;SDS011;8311;50.158;8.642;2022-07-12T00:25:25;3.47;;;1.73;;
16403;SDS011;8311;50.158;8.642;2022-07-12T00:28:20;2.88;;;1.67;;
16403;SDS011;8311;50.158;8.642;2022-07-12T00:31:14;2.47;;;1.60;;
16403;SDS011;8311;50.158;8.642;2022-07-12T00:34:07;1.77;;;1.33;;
16403;SDS011;8311;50.158;8.642;2022-07-12T00:37:03;2.28;;;1.30;;
16403;SDS011;8311;50.158;8.642;2022-07-12T00:39:57;2.47;;;1.70;;
16403;SDS011;8311;50.158;8.642;2022-07-12T00:42:50;2.40;;;1.77;;
16403;SDS011;8311;50.158;8.642;2022-07-12T00:45:46;2.50;;;1.60;;
16403;SDS011;8311;50.158;8.642;2022-07-12T00:48:39;2.10;;;1.30;;
16403;SDS011;8311;50.158;8.642;2022-07-12T00:51:32;1.75;;;1.42;;
16403;SDS011;8311;50.158;8.642;2022-07-12T00:54:27;2.33;;;1.45;;
16403;SDS011;8311;50.158;8.642;2022-07-12T00:57:19;1.70;;;1.40;;
16403;SDS011;8311;50.158;8.642;2022-07-12T01:00:14;1.98;;;1.30;;
16403;SDS011;8311;50.158;8.642;2022-07-12T01:03:10;1.80;;;1.30;;
16403;SDS011;8311;50.158;8.642;2022-07-12T01:06:04;1.38;;;1.20;;
16403;SDS011;8311;50.158;8.642;2022-07-12T01:08:58;2.47;;;1.58;;
16403;SDS011;8311;50.158;8.642;2022-07-12T01:11:55;1.58;;;1.13;;
16403;SDS011;8311;50.158;8.642;2022-07-12T01:14:49;1.50;;;1.17;;
16403;SDS011;8311;50.158;8.642;2022-07-12T01:17:43;1.80;;;1.13;;
16403;SDS011;8311;50.158;8.642;2022-07-12T01:20:45;1.80;;;1.25;;
16403;SDS011;8311;50.158;8.642;2022-07-12T01:23:40;1.50;;;1.20;;
16403;SDS011;8311;50.158;8.642;2022-07-12T01:26:33;1.30;;;1.20;;
16403;SDS011;8311;50.158;8.642;2022-07-12T01:29:27;2.80;;;1.55;;
16403;SDS011;8311;50.158;8.642;2022-07-12T01:32:20;1.42;;;1.30;;
16403;SDS011;8311;50.158;8.642;2022-07-12T01:35:18;1.50;;;1.17;;
16403;SDS011;8311;50.158;8.642;2022-07-12T01:38:11;2.15;;;1.30;;
16403;SDS011;8311;50.158;8.642;2022-07-12T01:41:08;1.88;;;1.20;;
16403;SDS011;8311;50.158;8.642;2022-07-12T01:44:01;1.70;;;1.27;;
16403;SDS011;8311;50.158;8.642;2022-07-12T01:46:56;2.22;;;1.40;;
16403;SDS011;8311;50.158;8.642;2022-07-12T01:49:51;1.95;;;1.40;;
16403;SDS011;8311;50.158;8.642;2022-07-12T01:52:45;2.13;;;1.38;;
16403;SDS011;8311;50.158;8.642;2022-07-12T01:55:38;1.60;;;1.38;;
16403;SDS011;8311;50.158;8.642;2022-07-12T01:58:34;2.00;;;1.40;;
16403;SDS011;8311;50.158;8.642;2022-07-12T02:01:28;2.55;;;1.50;;
16403;SDS011;8311;50.158;8.642;2022-07-12T02:04:23;2.33;;;1.67;;
16403;SDS011;8311;50.158;8.642;2022-07-12T02:07:16;2.67;;;1.50;;
16403;SDS011;8311;50.158;8.642;2022-07-12T02:10:09;1.65;;;1.40;;
16403;SDS011;8311;50.158;8.642;2022-07-12T02:13:03;2.67;;;1.65;;
16403;SDS011;8311;50.158;8.642;2022-07-12T02:15:58;2.70;;;1.40;;
16403;SDS011;8311;50.158;8.642;2022-07-12T02:18:51;1.58;;;1.30;;
16403;SDS011;8311;50.158;8.642;2022-07-12T02:21:46;3.33;;;1.55;;
16403;SDS011;8311;50.158;8.642;2022-07-12T02:24:39;1.45;;;1.20;;
16403;SDS011;8311;50.158;8.642;2022-07-12T02:27:32;1.92;;;1.40;;
16403;SDS011;8311;50.158;8.642;2022-07-12T02:30:26;2.15;;;1.25;;
16403;SDS011;8311;50.158;8.642;2022-07-12T02:33:21;1.67;;;1.20;;
16403;SDS011;8311;50.158;8.642;2022-07-12T02:36:15;2.45;;;1.60;;
16403;SDS011;8311;50.158;8.642;2022-07-12T02:39:09;1.92;;;1.38;;
16403;SDS011;8311;50.158;8.642;2022-07-12T02:42:03;1.70;;;1.30;;
16403;SDS011;8311;50.158;8.642;2022-07-12T02:44:57;1.23;;;1.10;;
16403;SDS011;8311;50.158;8.642;2022-07-12T02:47:50;1.77;;;1.20;;
16403;SDS011;8311;50.158;8.642;2022-07-12T02:50:45;1.50;;;1.30;;
16403;SDS011;8311;50.158;8.642;2022-07-12T02:53:39;1.50;;;1.25;;
16403;SDS011;8311;50.158;8.642;2022-07-12T02:56:33;1.92;;;1.40;;
16403;SDS011;8311;50.158;8.642;2022-07-12T02:59:25;1.30;;;1.20;;
16403;SDS011;8311;50.158;8.642;2022-07-12T03:02:18;2.22;;;1.30;;
16403;SDS011;8311;50.158;8.642;2022-07-12T03:05:12;2.10;;;1.40;;
16403;SDS011;8311;50.158;8.642;2022-07-12T03:08:06;1.45;;;1.17;;
16403;SDS011;8311;50.158;8.642;2022-07-12T03:11:00;2.58;;;1.45;;
16403;SDS011;8311;50.158;8.642;2022-07-12T03:13:53;2.80;;;1.20;;
16403;SDS011;8311;50.158;8.642;2022-07-12T03:16:46;1.85;;;1.30;;
16403;SDS011;8311;50.158;8.642;2022-07-12T03:19:41;2.50;;;1.50;;
16403;SDS011;8311;50.158;8.642;2022-07-12T03:22:34;2.13;;;1.10;;
16403;SDS011;8311;50.158;8.642;2022-07-12T03:25:28;1.90;;;1.20;;
16403;SDS011;8311;50.158;8.642;2022-07-12T03:28:21;2.72;;;1.30;;
16403;SDS011;8311;50.158;8.642;2022-07-12T03:31:15;1.92;;;1.10;;
16403;SDS011;8311;50.158;8.642;2022-07-12T03:34:07;2.65;;;1.20;;
16403;SDS011;8311;50.158;8.642;2022-07-12T03:37:00;3.33;;;1.33;;
16403;SDS011;8311;50.158;8.642;2022-07-12T03:39:53;1.67;;;1.42;;
16403;SDS011;8311;50.158;8.642;2022-07-12T03:42:48;2.00;;;1.42;;
16403;SDS011;8311;50.158;8.642;2022-07-12T03:45:43;2.25;;;1.40;;
16403;SDS011;8311;50.158;8.642;2022-07-12T03:48:37;2.00;;;1.30;;
16403;SDS011;8311;50.158;8.642;2022-07-12T03:51:31;2.00;;;1.48;;
16403;SDS011;8311;50.158;8.642;2022-07-12T03:54:24;2.00;;;1.20;;
16403;SDS011;8311;50.158;8.642;2022-07-12T03:57:17;1.90;;;1.30;;
16403;SDS011;8311;50.158;8.642;2022-07-12T04:00:13;2.22;;;1.30;;
16403;SDS011;8311;50.158;8.642;2022-07-12T04:03:06;2.13;;;1.27;;
16403;SDS011;8311;50.158;8.642;2022-07-12T04:06:00;1.88;;;1.23;;
16403;SDS011;8311;50.158;8.642;2022-07-12T04:08:54;2.22;;;1.27;;
16403;SDS011;8311;50.158;8.642;2022-07-12T04:11:47;2.13;;;1.40;;
16403;SDS011;8311;50.158;8.642;2022-07-12T04:14:40;2.70;;;1.52;;
16403;SDS011;8311;50.158;8.642;2022-07-12T04:17:35;1.90;;;1.20;;
16403;SDS011;8311;50.158;8.642;2022-07-12T04:20:29;2.40;;;1.48;;
16403;SDS011;8311;50.158;8.642;2022-07-12T04:23:23;1.48;;;1.08;;
16403;SDS011;8311;50.158;8.642;2022-07-12T04:26:15;2.33;;;1.73;;
16403;SDS011;8311;50.158;8.642;2022-07-12T04:29:08;2.45;;;1.20;;
16403;SDS011;8311;50.158;8.642;2022-07-12T04:32:02;2.08;;;1.40;;
16403;SDS011;8311;50.158;8.642;2022-07-12T04:34:57;1.35;;;1.13;;
16403;SDS011;8311;50.158;8.642;2022-07-12T04:37:50;1.33;;;1.20;;
16403;SDS011;8311;50.158;8.642;2022-07-12T04:40:44;3.28;;;1.58;;
16403;SDS011;8311;50.158;8.642;2022-07-12T04:43:37;1.98;;;1.40;;
16403;SDS011;8311;50.158;8.642;2022-07-12T04:46:30;2.45;;;1.40;;
16403;SDS011;8311;50.158;8.642;2022-07-12T04:49:23;2.63;;;1.50;;
16403;SDS011;8311;50.158;8.642;2022-07-12T04:52:18;1.42;;;1.30;;
16403;SDS011;8311;50.158;8.642;2022-07-12T04:55:11;2.42;;;1.33;;
16403;SDS011;8311;50.158;8.642;2022-07-12T04:58:04;2.53;;;1.30;;
16403;SDS011;8311;50.158;8.642;2022-07-12T05:00:57;2.83;;;1.20;;
16403;SDS011;8311;50.158;8.642;2022-07-12T05:03:51;2.28;;;1.15;;
16403;SDS011;8311;50.158;8.642;2022-07-12T05:06:44;1.77;;;1.17;;
16403;SDS011;8311;50.158;8.642;2022-07-12T05:09:38;2.95;;;1.50;;
16403;SDS011;8311;50.158;8.642;2022-07-12T05:12:31;2.63;;;1.52;;
16403;SDS011;8311;50.158;8.642;2022-07-12T05:15:26;2.17;;;1.40;;
16403;SDS011;8311;50.158;8.642;2022-07-12T05:18:19;1.75;;;1.30;;
16403;SDS011;8311;50.158;8.642;2022-07-12T05:21:12;1.40;;;1.30;;
16403;SDS011;8311;50.158;8.642;2022-07-12T05:24:05;1.80;;;1.38;;
16403;SDS011;8311;50.158;8.642;2022-07-12T05:27:00;2.05;;;1.27;;
16403;SDS011;8311;50.158;8.642;2022-07-12T05:29:53;2.40;;;1.42;;
16403;SDS011;8311;50.158;8.642;2022-07-12T05:32:46;1.90;;;1.40;;
16403;SDS011;8311;50.158;8.642;2022-07-12T05:35:40;1.05;;;0.95;;
16403;SDS011;8311;50.158;8.642;2022-07-12T05:38:33;3.03;;;1.30;;
16403;SDS011;8311;50.158;8.642;2022-07-12T05:41:26;1.25;;;1.05;;
16403;SDS011;8311;50.158;8.642;2022-07-12T05:44:21;3.50;;;1.48;;
16403;SDS011;8311;50.158;8.642;2022-07-12T05:47:15;2.50;;;1.33;;
16403;SDS011;8311;50.158;8.642;2022-07-12T05:50:08;3.17;;;1.20;;
16403;SDS011;8311;50.158;8.642;2022-07-12T05:53:02;2.40;;;1.20;;
16403;SDS011;8311;50.158;8.642;2022-07-12T05:56:13;3.05;;;1.50;;
16403;SDS011;8311;50.158;8.642;2022-07-12T05:59:06;1.98;;;1.60;;
16403;SDS011;8311;50.158;8.642;2022-07-12T06:02:00;1.77;;;1.27;;
16403;SDS011;8311;50.158;8.642;2022-07-12T06:04:54;2.20;;;1.20;;
16403;SDS011;8311;50.158;8.642;2022-07-12T06:07:50;1.98;;;1.30;;
16403;SDS011;8311;50.158;8.642;2022-07-12T06:10:43;2.50;;;1.63;;
16403;SDS011;8311;50.158;8.642;2022-07-12T06:13:36;3.63;;;1.40;;
16403;SDS011;8311;50.158;8.642;2022-07-12T06:16:29;1.42;;;1.20;;
16403;SDS011;8311;50.158;8.642;2022-07-12T06:19:24;2.13;;;1.40;;
16403;SDS011;8311;50.158;8.642;2022-07-12T06:22:18;2.17;;;1.30;;
16403;SDS011;8311;50.158;8.642;2022-07-12T06:25:12;1.30;;;1.20;;
16403;SDS011;8311;50.158;8.642;2022-07-12T06:28:26;1.00;;;0.90;;
16403;SDS011;8311;50.158;8.642;2022-07-12T06:31:18;1.67;;;1.20;;
16403;SDS011;8311;50.158;8.642;2022-07-12T06:34:12;1.98;;;1.30;;
16403;SDS011;8311;50.158;8.642;2022-07-12T06:37:07;1.55;;;0.98;;
16403;SDS011;8311;50.158;8.642;2022-07-12T06:40:01;1.73;;;1.33;;
16403;SDS011;8311;50.158;8.642;2022-07-12T06:42:55;2.08;;;1.45;;
16403;SDS011;8311;50.158;8.642;2022-07-12T06:45:48;2.17;;;1.38;;
16403;SDS011;8311;50.158;8.642;2022-07-12T06:48:41;1.67;;;1.20;;
16403;SDS011;8311;50.158;8.642;2022-07-12T06:51:34;1.00;;;0.90;;
16403;SDS011;8311;50.158;8.642;2022-07-12T06:54:32;1.58;;;1.30;;
16403;SDS011;8311;50.158;8.642;2022-07-12T06:57:25;1.38;;;1.05;;
16403;SDS011;8311;50.158;8.642;2022-07-12T07:00:21;1.88;;;1.23;;
16403;SDS011;8311;50.158;8.642;2022-07-12T07:03:15;1.52;;;1.30;;
16403;SDS011;8311;50.158;8.642;2022-07-12T07:06:08;2.42;;;1.35;;
16403;SDS011;8311;50.158;8.642;2022-07-12T07:09:01;1.23;;;1.05;;
16403;SDS011;8311;50.158;8.642;2022-07-12T07:11:59;2.28;;;1.55;;
16403;SDS011;8311;50.158;8.642;2022-07-12T07:14:53;1.58;;;1.13;;
16403;SDS011;8311;50.158;8.642;2022-07-12T07:17:45;2.70;;;1.38;;
16403;SDS011;8311;50.158;8.642;2022-07-12T07:20:38;2.80;;;1.50;;
16403;SDS011;8311;50.158;8.642;2022-07-12T07:23:32;3.30;;;1.40;;
16403;SDS011;8311;50.158;8.642;2022-07-12T07:26:26;2.20;;;1.35;;
16403;SDS011;8311;50.158;8.642;2022-07-12T07:29:20;1.90;;;1.40;;
16403;SDS011;8311;50.158;8.642;2022-07-12T07:32:31;1.90;;;1.35;;
16403;SDS011;8311;50.158;8.642;2022-07-12T07:35:24;3.30;;;1.70;;
16403;SDS011;8311;50.158;8.642;2022-07-12T07:38:17;2.03;;;1.40;;
16403;SDS011;8311;50.158;8.642;2022-07-12T07:41:12;2.05;;;1.40;;
16403;SDS011;8311;50.158;8.642;2022-07-12T07:44:05;2.03;;;1.38;;
16403;SDS011;8311;50.158;8.642;2022-07-12T07:46:59;1.70;;;1.40;;
16403;SDS011;8311;50.158;8.642;2022-07-12T07:49:54;1.95;;;1.20;;
16403;SDS011;8311;50.158;8.642;2022-07-12T07:52:48;2.00;;;1.23;;
16403;SDS011;8311;50.158;8.642;2022-07-12T07:55:43;1.15;;;1.05;;
16403;SDS011;8311;50.158;8.642;2022-07-12T07:58:37;1.60;;;1.20;;
16403;SDS011;8311;50.158;8.642;2022-07-12T08:01:31;2.35;;;1.55;;
16403;SDS011;8311;50.158;8.642;2022-07-12T08:04:39;1.30;;;1.10;;
16403;SDS011;8311;50.158;8.642;2022-07-12T08:07:32;2.95;;;1.60;;
16403;SDS011;8311;50.158;8.642;2022-07-12T08:10:45;1.73;;;1.20;;
16403;SDS011;8311;50.158;8.642;2022-07-12T08:13:38;2.00;;;1.33;;
16403;SDS011;8311;50.158;8.642;2022-07-12T08:16:31;1.90;;;1.10;;
16403;SDS011;8311;50.158;8.642;2022-07-12T08:19:25;1.40;;;1.17;;
16403;SDS011;8311;50.158;8.642;2022-07-12T08:22:20;2.20;;;1.55;;
16403;SDS011;8311;50.158;8.642;2022-07-12T08:25:14;1.38;;;1.27;;
16403;SDS011;8311;50.158;8.642;2022-07-12T08:28:13;2.95;;;1.30;;
16403;SDS011;8311;50.158;8.642;2022-07-12T08:31:08;3.72;;;1.55;;
16403;SDS011;8311;50.158;8.642;2022-07-12T08:34:01;2.45;;;1.30;;
16403;SDS011;8311;50.158;8.642;2022-07-12T08:36:55;1.23;;;1.02;;
16403;SDS011;8311;50.158;8.642;2022-07-12T08:39:50;2.05;;;1.38;;
16403;SDS011;8311;50.158;8.642;2022-07-12T08:42:43;1.50;;;1.20;;
16403;SDS011;8311;50.158;8.642;2022-07-12T08:45:39;1.92;;;1.42;;
16403;SDS011;8311;50.158;8.642;2022-07-12T08:48:33;1.67;;;1.38;;
16403;SDS011;8311;50.158;8.642;2022-07-12T08:51:27;3.97;;;1.50;;
16403;SDS011;8311;50.158;8.642;2022-07-12T08:54:21;1.20;;;1.10;;
16403;SDS011;8311;50.158;8.642;2022-07-12T08:57:16;1.58;;;1.30;;
16403;SDS011;8311;50.158;8.642;2022-07-12T09:00:21;1.67;;;1.30;;
16403;SDS011;8311;50.158;8.642;2022-07-12T09:03:16;1.20;;;1.10;;
16403;SDS011;8311;50.158;8.642;2022-07-12T09:06:11;1.80;;;1.08;;
16403;SDS011;8311;50.158;8.642;2022-07-12T09:09:04;2.65;;;1.20;;
16403;SDS011;8311;50.158;8.642;2022-07-12T09:12:00;1.42;;;1.10;;
16403;SDS011;8311;50.158;8.642;2022-07-12T09:14:55;1.40;;;1.20;;
16403;SDS011;8311;50.158;8.642;2022-07-12T09:18:03;1.05;;;0.95;;
16403;SDS011;8311;50.158;8.642;2022-07-12T09:21:04;1.63;;;1.10;;
16403;SDS011;8311;50.158;8.642;2022-07-12T09:23:57;1.85;;;1.15;;
16403;SDS011;8311;50.158;8.642;2022-07-12T09:26:52;2.80;;;1.08;;
16403;SDS011;8311;50.158;8.642;2022-07-12T09:29:49;2.25;;;1.00;;
16403;SDS011;8311;50.158;8.642;2022-07-12T09:32:52;1.30;;;1.10;;
16403;SDS011;8311;50.158;8.642;2022-07-12T09:36:07;1.55;;;1.10;;
16403;SDS011;8311;50.158;8.642;2022-07-12T09:39:01;1.65;;;1.33;;
16403;SDS011;8311;50.158;8.642;2022-07-12T09:41:54;1.45;;;0.93;;
16403;SDS011;8311;50.158;8.642;2022-07-12T09:44:48;1.63;;;1.30;;
16403;SDS011;8311;50.158;8.642;2022-07-12T09:47:43;1.98;;;1.08;;
16403;SDS011;8311;50.158;8.642;2022-07-12T09:50:39;2.95;;;1.10;;
16403;SDS011;8311;50.158;8.642;2022-07-12T09:53:39;2.80;;;1.00;;
16403;SDS011;8311;50.158;8.642;2022-07-12T09:56:36;2.08;;;1.17;;
16403;SDS011;8311;50.158;8.642;2022-07-12T09:59:34;1.02;;;0.80;;
16403;SDS011;8311;50.158;8.642;2022-07-12T10:02:30;1.05;;;0.80;;
16403;SDS011;8311;50.158;8.642;2022-07-12T10:05:28;0.70;;;0.70;;
16403;SDS011;8311;50.158;8.642;2022-07-12T10:08:23;2.85;;;1.05;;
16403;SDS011;8311;50.158;8.642;2022-07-12T10:11:17;0.98;;;0.98;;
16403;SDS011;8311;50.158;8.642;2022-07-12T10:14:31;1.70;;;0.90;;
16403;SDS011;8311;50.158;8.642;2022-07-12T10:17:25;1.38;;;1.08;;
16403;SDS011;8311;50.158;8.642;2022-07-12T10:20:20;1.08;;;0.93;;
16403;SDS011;8311;50.158;8.642;2022-07-12T10:23:28;1.02;;;0.95;;
16403;SDS011;8311;50.158;8.642;2022-07-12T10:26:26;1.67;;;0.75;;
16403;SDS011;8311;50.158;8.642;2022-07-12T10:29:32;1.70;;;1.00;;
16403;SDS011;8311;50.158;8.642;2022-07-12T10:32:29;1.60;;;0.80;;
16403;SDS011;8311;50.158;8.642;2022-07-12T10:35:27;0.90;;;0.90;;
16403;SDS011;8311;50.158;8.642;2022-07-12T10:38:21;1.35;;;1.00;;
16403;SDS011;8311;50.158;8.642;2022-07-12T10:41:17;1.45;;;0.88;;
16403;SDS011;8311;50.158;8.642;2022-07-12T10:44:11;3.03;;;1.30;;
16403;SDS011;8311;50.158;8.642;2022-07-12T10:47:26;1.00;;;0.90;;
16403;SDS011;8311;50.158;8.642;2022-07-12T10:50:19;1.95;;;1.20;;
16403;SDS011;8311;50.158;8.642;2022-07-12T10:53:22;1.50;;;0.88;;
16403;SDS011;8311;50.158;8.642;2022-07-12T10:56:25;0.98;;;0.85;;
16403;SDS011;8311;50.158;8.642;2022-07-12T10:59:21;1.95;;;0.85;;
16403;SDS011;8311;50.158;8.642;2022-07-12T11:02:15;3.33;;;0.80;;
16403;SDS011;8311;50.158;8.642;2022-07-12T11:05:16;1.42;;;0.90;;
16403;SDS011;8311;50.158;8.642;2022-07-12T11:08:16;1.17;;;1.05;;
16403;SDS011;8311;50.158;8.642;2022-07-12T11:11:09;1.02;;;0.93;;
16403;SDS011;8311;50.158;8.642;2022-07-12T11:14:03;2.78;;;1.05;;
16403;SDS011;8311;50.158;8.642;2022-07-12T11:16:56;0.80;;;0.80;;
16403;SDS011;8311;50.158;8.642;2022-07-12T11:20:02;2.05;;;0.70;;
16403;SDS011;8311;50.158;8.642;2022-07-12T11:23:00;1.30;;;0.93;;
16403;SDS011;8311;50.158;8.642;2022-07-12T11:25:53;1.33;;;1.10;;
16403;SDS011;8311;50.158;8.642;2022-07-12T11:28:47;1.25;;;1.00;;
16403;SDS011;8311;50.158;8.642;2022-07-12T11:31:42;1.15;;;0.95;;
16403;SDS011;8311;50.158;8.642;2022-07-12T11:34:36;0.90;;;0.90;;
16403;SDS011;8311;50.158;8.642;2022-07-12T11:37:29;1.75;;;1.10;;
16403;SDS011;8311;50.158;8.642;2022-07-12T11:40:23;1.02;;;0.90;;
16403;SDS011;8311;50.158;8.642;2022-07-12T11:43:17;1.75;;;1.00;;
16403;SDS011;8311;50.158;8.642;2022-07-12T11:46:13;1.58;;;0.82;;
16403;SDS011;8311;50.158;8.642;2022-07-12T11:49:08;1.45;;;1.15;;
16403;SDS011;8311;50.158;8.642;2022-07-12T11:52:08;0.88;;;0.88;;
16403;SDS011;8311;50.158;8.642;2022-07-12T11:55:01;2.97;;;1.23;;
16403;SDS011;8311;50.158;8.642;2022-07-12T11:58:03;2.13;;;1.42;;
16403;SDS011;8311;50.158;8.642;2022-07-12T12:00:57;2.22;;;0.98;;
16403;SDS011;8311;50.158;8.642;2022-07-12T12:03:50;1.05;;;0.80;;
16403;SDS011;8311;50.158;8.642;2022-07-12T12:06:45;1.23;;;0.95;;
16403;SDS011;8311;50.158;8.642;2022-07-12T12:12:51;2.65;;;1.10;;
16403;SDS011;8311;50.158;8.642;2022-07-12T12:15:50;0.80;;;0.80;;
16403;SDS011;8311;50.158;8.642;2022-07-12T12:18:44;1.27;;;0.90;;
16403;SDS011;8311;50.158;8.642;2022-07-12T12:21:37;0.95;;;0.90;;
16403;SDS011;8311;50.158;8.642;2022-07-12T12:24:31;1.67;;;0.90;;
16403;SDS011;8311;50.158;8.642;2022-07-12T12:27:25;1.55;;;1.08;;
16403;SDS011;8311;50.158;8.642;2022-07-12T12:30:47;1.08;;;0.88;;
16403;SDS011;8311;50.158;8.642;2022-07-12T12:33:42;5.53;;;1.02;;
16403;SDS011;8311;50.158;8.642;2022-07-12T12:36:36;1.13;;;0.95;;
16403;SDS011;8311;50.158;8.642;2022-07-12T12:39:31;1.02;;;0.90;;
16403;SDS011;8311;50.158;8.642;2022-07-12T12:42:25;0.85;;;0.80;;
16403;SDS011;8311;50.158;8.642;2022-07-12T12:45:21;1.10;;;0.90;;
16403;SDS011;8311;50.158;8.642;2022-07-12T12:48:17;0.80;;;0.70;;
16403;SDS011;8311;50.158;8.642;2022-07-12T12:51:11;2.45;;;0.80;;
16403;SDS011;8311;50.158;8.642;2022-07-12T12:54:05;1.05;;;0.93;;
16403;SDS011;8311;50.158;8.642;2022-07-12T12:57:02;1.92;;;1.27;;
16403;SDS011;8311;50.158;8.642;2022-07-12T12:59:56;1.63;;;0.80;;
16403;SDS011;8311;50.158;8.642;2022-07-12T13:02:49;0.75;;;0.75;;
16403;SDS011;8311;50.158;8.642;2022-07-12T13:05:43;1.48;;;0.77;;
16403;SDS011;8311;50.158;8.642;2022-07-12T13:08:37;1.05;;;0.80;;
16403;SDS011;8311;50.158;8.642;2022-07-12T13:11:30;1.65;;;0.90;;
16403;SDS011;8311;50.158;8.642;2022-07-12T13:14:24;1.20;;;0.80;;
16403;SDS011;8311;50.158;8.642;2022-07-12T13:17:18;1.30;;;0.77;;
16403;SDS011;8311;50.158;8.642;2022-07-12T13:20:12;1.05;;;0.65;;
16403;SDS011;8311;50.158;8.642;2022-07-12T13:23:06;1.45;;;0.90;;
16403;SDS011;8311;50.158;8.642;2022-07-12T13:25:59;1.10;;;0.70;;
16403;SDS011;8311;50.158;8.642;2022-07-12T13:28:52;1.20;;;0.70;;
16403;SDS011;8311;50.158;8.642;2022-07-12T13:31:47;1.77;;;0.77;;
16403;SDS011;8311;50.158;8.642;2022-07-12T13:34:47;0.63;;;0.63;;
16403;SDS011;8311;50.158;8.642;2022-07-12T13:37:42;1.85;;;0.90;;
16403;SDS011;8311;50.158;8.642;2022-07-12T13:40:35;2.38;;;0.95;;
16403;SDS011;8311;50.158;8.642;2022-07-12T13:43:28;0.80;;;0.70;;
16403;SDS011;8311;50.158;8.642;2022-07-12T13:46:21;1.55;;;0.65;;
16403;SDS011;8311;50.158;8.642;2022-07-12T13:49:16;1.05;;;0.80;;
16403;SDS011;8311;50.158;8.642;2022-07-12T13:52:10;1.02;;;0.60;;
16403;SDS011;8311;50.158;8.642;2022-07-12T13:55:03;0.98;;;0.85;;
16403;SDS011;8311;50.158;8.642;2022-07-12T13:57:57;1.67;;;0.70;;
16403;SDS011;8311;50.158;8.642;2022-07-12T14:00:51;1.30;;;0.80;;
16403;SDS011;8311;50.158;8.642;2022-07-12T14:03:46;1.35;;;0.77;;
16403;SDS011;8311;50.158;8.642;2022-07-12T14:06:40;0.95;;;0.70;;
16403;SDS011;8311;50.158;8.642;2022-07-12T14:09:34;1.42;;;0.80;;
16403;SDS011;8311;50.158;8.642;2022-07-12T14:12:27;1.30;;;0.73;;
16403;SDS011;8311;50.158;8.642;2022-07-12T14:15:20;1.42;;;0.88;;
16403;SDS011;8311;50.158;8.642;2022-07-12T14:18:15;1.27;;;1.00;;
16403;SDS011;8311;50.158;8.642;2022-07-12T14:21:09;0.82;;;0.55;;
16403;SDS011;8311;50.158;8.642;2022-07-12T14:24:01;2.40;;;0.70;;
16403;SDS011;8311;50.158;8.642;2022-07-12T14:26:54;0.95;;;0.80;;
16403;SDS011;8311;50.158;8.642;2022-07-12T14:29:47;3.17;;;0.70;;
16403;SDS011;8311;50.158;8.642;2022-07-12T14:32:42;1.90;;;0.73;;
16403;SDS011;8311;50.158;8.642;2022-07-12T14:35:42;1.20;;;0.73;;
16403;SDS011;8311;50.158;8.642;2022-07-12T14:38:35;0.70;;;0.65;;
16403;SDS011;8311;50.158;8.642;2022-07-12T14:41:29;1.20;;;0.70;;
16403;SDS011;8311;50.158;8.642;2022-07-12T14:44:22;0.60;;;0.60;;
16403;SDS011;8311;50.158;8.642;2022-07-12T14:47:16;0.77;;;0.77;;
16403;SDS011;8311;50.158;8.642;2022-07-12T14:50:11;0.80;;;0.77;;
16403;SDS011;8311;50.158;8.642;2022-07-12T14:53:06;1.30;;;0.80;;
16403;SDS011;8311;50.158;8.642;2022-07-12T14:55:59;0.90;;;0.73;;
16403;SDS011;8311;50.158;8.642;2022-07-12T14:58:53;1.48;;;0.70;;
16403;SDS011;8311;50.158;8.642;2022-07-12T15:01:45;1.77;;;1.08;;
16403;SDS011;8311;50.158;8.642;2022-07-12T15:04:38;0.95;;;0.88;;
16403;SDS011;8311;50.158;8.642;2022-07-12T15:07:32;0.70;;;0.60;;
16403;SDS011;8311;50.158;8.642;2022-07-12T15:10:26;1.13;;;0.55;;
16403;SDS011;8311;50.158;8.642;2022-07-12T15:13:18;1.90;;;0.70;;
16403;SDS011;8311;50.158;8.642;2022-07-12T15:16:12;0.60;;;0.60;;
16403;SDS011;8311;50.158;8.642;2022-07-12T15:19:06;0.70;;;0.70;;
16403;SDS011;8311;50.158;8.642;2022-07-12T15:22:00;1.17;;;0.80;;
16403;SDS011;8311;50.158;8.642;2022-07-12T15:24:54;0.82;;;0.60;;
16403;SDS011;8311;50.158;8.642;2022-07-12T15:27:48;0.60;;;0.60;;
16403;SDS011;8311;50.158;8.642;2022-07-12T15:30:43;0.70;;;0.70;;
16403;SDS011;8311;50.158;8.642;2022-07-12T15:33:36;0.70;;;0.60;;
16403;SDS011;8311;50.158;8.642;2022-07-12T15:36:29;0.80;;;0.77;;
16403;SDS011;8311;50.158;8.642;2022-07-12T15:39:23;0.82;;;0.80;;
16403;SDS011;8311;50.158;8.642;2022-07-12T15:42:16;0.85;;;0.70;;
16403;SDS011;8311;50.158;8.642;2022-07-12T15:45:11;0.70;;;0.70;;
16403;SDS011;8311;50.158;8.642;2022-07-12T15:48:05;1.95;;;0.60;;
16403;SDS011;8311;50.158;8.642;2022-07-12T15:50:59;0.70;;;0.70;;
16403;SDS011;8311;50.158;8.642;2022-07-12T15:53:53;2.05;;;0.80;;
16403;SDS011;8311;50.158;8.642;2022-07-12T15:56:44;1.13;;;0.68;;
16403;SDS011;8311;50.158;8.642;2022-07-12T15:59:46;0.70;;;0.70;;
16403;SDS011;8311;50.158;8.642;2022-07-12T16:02:41;0.60;;;0.60;;
16403;SDS011;8311;50.158;8.642;2022-07-12T16:05:36;0.70;;;0.70;;
16403;SDS011;8311;50.158;8.642;2022-07-12T16:08:29;0.75;;;0.70;;
16403;SDS011;8311;50.158;8.642;2022-07-12T16:11:24;0.50;;;0.50;;
16403;SDS011;8311;50.158;8.642;2022-07-12T16:14:17;0.95;;;0.70;;
16403;SDS011;8311;50.158;8.642;2022-07-12T16:17:15;0.82;;;0.70;;
16403;SDS011;8311;50.158;8.642;2022-07-12T16:20:10;0.70;;;0.65;;
16403;SDS011;8311;50.158;8.642;2022-07-12T16:23:04;2.17;;;0.75;;
16403;SDS011;8311;50.158;8.642;2022-07-12T16:25:57;1.00;;;0.95;;
16403;SDS011;8311;50.158;8.642;2022-07-12T16:28:54;1.60;;;0.90;;
16403;SDS011;8311;50.158;8.642;2022-07-12T16:31:47;1.73;;;0.80;;
16403;SDS011;8311;50.158;8.642;2022-07-12T16:35:02;1.45;;;0.80;;
16403;SDS011;8311;50.158;8.642;2022-07-12T16:37:57;0.60;;;0.60;;
16403;SDS011;8311;50.158;8.642;2022-07-12T16:40:57;1.15;;;0.85;;
16403;SDS011;8311;50.158;8.642;2022-07-12T16:43:51;0.95;;;0.80;;
16403;SDS011;8311;50.158;8.642;2022-07-12T16:46:44;1.27;;;0.80;;
16403;SDS011;8311;50.158;8.642;2022-07-12T16:49:38;1.17;;;0.80;;
16403;SDS011;8311;50.158;8.642;2022-07-12T16:52:31;0.93;;;0.82;;
16403;SDS011;8311;50.158;8.642;2022-07-12T16:55:25;0.95;;;0.85;;
16403;SDS011;8311;50.158;8.642;2022-07-12T16:58:19;0.63;;;0.50;;
16403;SDS011;8311;50.158;8.642;2022-07-12T17:01:12;2.30;;;0.77;;
16403;SDS011;8311;50.158;8.642;2022-07-12T17:04:06;0.80;;;0.80;;
16403;SDS011;8311;50.158;8.642;2022-07-12T17:06:59;0.50;;;0.50;;
16403;SDS011;8311;50.158;8.642;2022-07-12T17:09:52;0.68;;;0.65;;
16403;SDS011;8311;50.158;8.642;2022-07-12T17:12:47;2.42;;;0.68;;
16403;SDS011;8311;50.158;8.642;2022-07-12T17:15:41;0.70;;;0.70;;
16403;SDS011;8311;50.158;8.642;2022-07-12T17:18:36;0.80;;;0.70;;
16403;SDS011;8311;50.158;8.642;2022-07-12T17:21:30;0.65;;;0.65;;
16403;SDS011;8311;50.158;8.642;2022-07-12T17:24:23;1.80;;;0.85;;
16403;SDS011;8311;50.158;8.642;2022-07-12T17:27:16;1.45;;;0.77;;
16403;SDS011;8311;50.158;8.642;2022-07-12T17:30:11;2.35;;;0.70;;
16403;SDS011;8311;50.158;8.642;2022-07-12T17:33:06;1.02;;;0.90;;
16403;SDS011;8311;50.158;8.642;2022-07-12T17:35:59;1.80;;;1.00;;
16403;SDS011;8311;50.158;8.642;2022-07-12T17:38:52;1.38;;;0.77;;
16403;SDS011;8311;50.158;8.642;2022-07-12T17:41:45;1.00;;;0.90;;
16403;SDS011;8311;50.158;8.642;2022-07-12T17:44:38;1.20;;;0.90;;
16403;SDS011;8311;50.158;8.642;2022-07-12T17:47:33;0.75;;;0.60;;
16403;SDS011;8311;50.158;8.642;2022-07-12T17:50:27;0.65;;;0.65;;
16403;SDS011;8311;50.158;8.642;2022-07-12T17:53:21;1.23;;;0.80;;